Time;durP1;ratioP1;P1;durP2;ratioP2;P2;SDS_P1;SDS_P2;PMS_P1;PMS_P2;Temp;Humidity;BMP_temperature;BMP_pressure;BME280_temperature;BME280_humidity;BME280_pressure;Samples;Min_cycle;Max_cycle;Signal;HPM_P1;HPM_P2
2022/08/06 00:02:35;;;;;;;6.53;1.80;;;;;;;;;;5002958;28;20058;-78
2022/08/06 00:05:04;;;;;;;7.82;2.08;;;;;;;;;;5006035;28;20157;-78
2022/08/06 00:07:32;;;;;;;5.78;1.70;;;;;;;;;;5007669;28;20042;-77
2022/08/06 00:10:15;;;;;;;9.52;1.70;;;;;;;;;;5004028;28;20082;-78
2022/08/06 00:12:42;;;;;;;13.40;1.83;;;;;;;;;;5008341;28;20105;-78
2022/08/06 00:15:12;;;;;;;6.65;1.77;;;;;;;;;;5007507;28;20054;-78
2022/08/06 00:17:42;;;;;;;9.30;1.73;;;;;;;;;;5008367;28;20050;-78
2022/08/06 00:20:10;;;;;;;9.07;1.90;;;;;;;;;;5004881;28;20059;-78
2022/08/06 00:22:52;;;;;;;7.15;2.03;;;;;;;;;;5006697;28;20046;-78
2022/08/06 00:25:19;;;;;;;4.78;1.50;;;;;;;;;;5010609;28;20081;-79
2022/08/06 00:27:46;;;;;;;7.95;1.77;;;;;;;;;;5009218;28;20046;-78
2022/08/06 00:30:18;;;;;;;6.72;1.80;;;;;;;;;;5006254;28;20050;-78
2022/08/06 00:32:49;;;;;;;6.22;1.83;;;;;;;;;;5000497;28;20110;-78
2022/08/06 00:35:19;;;;;;;7.82;1.75;;;;;;;;;;5008434;28;20117;-78
2022/08/06 00:37:54;;;;;;;5.25;1.90;;;;;;;;;;5010752;28;20047;-78
2022/08/06 00:40:29;;;;;;;7.63;2.53;;;;;;;;;;5015114;28;20719;-78
2022/08/06 00:43:01;;;;;;;7.45;2.20;;;;;;;;;;5010807;28;20039;-78
2022/08/06 00:45:35;;;;;;;5.20;2.10;;;;;;;;;;5009935;28;20043;-78
2022/08/06 00:48:12;;;;;;;6.25;2.10;;;;;;;;;;5013357;28;20065;-77
2022/08/06 00:50:59;;;;;;;4.70;1.70;;;;;;;;;;5013003;28;20097;-79
2022/08/06 00:53:28;;;;;;;6.30;2.20;;;;;;;;;;5011028;28;20051;-78
2022/08/06 00:56:01;;;;;;;4.60;1.85;;;;;;;;;;5008667;28;20094;-79
2022/08/06 00:58:35;;;;;;;4.47;1.45;;;;;;;;;;5008733;28;20591;-79
2022/08/06 01:01:08;;;;;;;5.57;1.80;;;;;;;;;;5007584;28;20105;-78
2022/08/06 01:03:44;;;;;;;5.50;1.95;;;;;;;;;;5010000;28;20077;-78
2022/08/06 01:06:21;;;;;;;4.25;1.77;;;;;;;;;;5007812;28;20051;-78
2022/08/06 01:09:09;;;;;;;6.00;1.88;;;;;;;;;;5014606;28;20145;-78
2022/08/06 01:11:37;;;;;;;5.38;1.98;;;;;;;;;;5012520;28;20082;-79
2022/08/06 01:14:04;;;;;;;5.28;2.10;;;;;;;;;;5013349;28;20088;-79
2022/08/06 01:16:40;;;;;;;7.82;1.80;;;;;;;;;;5021351;28;20095;-79
2022/08/06 01:19:15;;;;;;;5.70;1.90;;;;;;;;;;5018194;28;20042;-78
2022/08/06 01:22:22;;;;;;;9.40;2.15;;;;;;;;;;5022059;28;20111;-80
2022/08/06 01:25:25;;;;;;;4.75;1.50;;;;;;;;;;5018367;28;20133;-78
2022/08/06 01:28:23;;;;;;;4.28;1.83;;;;;;;;;;5013302;28;20042;-78
2022/08/06 01:31:00;;;;;;;6.13;1.90;;;;;;;;;;5016514;28;20055;-79
2022/08/06 01:33:30;;;;;;;9.48;2.58;;;;;;;;;;5014657;28;20082;-79
2022/08/06 01:36:07;;;;;;;8.85;2.20;;;;;;;;;;5015555;28;20769;-78
2022/08/06 01:38:46;;;;;;;4.35;1.80;;;;;;;;;;5023023;28;20095;-80
2022/08/06 01:41:39;;;;;;;6.00;2.10;;;;;;;;;;5016545;28;20145;-79
2022/08/06 01:44:29;;;;;;;10.55;2.00;;;;;;;;;;5017079;28;20050;-81
2022/08/06 01:47:04;;;;;;;6.40;1.92;;;;;;;;;;5017764;28;20124;-79
2022/08/06 01:49:45;;;;;;;4.45;1.90;;;;;;;;;;5021209;28;20050;-80
2022/08/06 01:52:35;;;;;;;10.95;2.10;;;;;;;;;;5020688;28;20930;-80
2022/08/06 01:55:06;;;;;;;8.57;2.50;;;;;;;;;;5018518;28;20788;-81
2022/08/06 01:57:37;;;;;;;7.72;2.20;;;;;;;;;;5019708;28;20109;-81
2022/08/06 02:00:24;;;;;;;9.30;2.10;;;;;;;;;;5023632;28;20023;-80
2022/08/06 02:02:58;;;;;;;5.15;1.80;;;;;;;;;;5028572;28;20053;-80
2022/08/06 02:05:25;;;;;;;8.38;2.33;;;;;;;;;;5029546;28;20042;-81
2022/08/06 02:07:59;;;;;;;8.13;2.75;;;;;;;;;;5030579;28;20035;-81
2022/08/06 02:10:47;;;;;;;5.82;1.88;;;;;;;;;;5027588;28;20045;-80
2022/08/06 02:13:15;;;;;;;8.50;2.00;;;;;;;;;;5033268;28;20042;-80
2022/08/06 02:15:44;;;;;;;6.50;1.80;;;;;;;;;;5029450;28;20082;-81
2022/08/06 02:18:27;;;;;;;5.13;1.98;;;;;;;;;;5031747;28;20049;-82
2022/08/06 02:21:06;;;;;;;4.30;1.80;;;;;;;;;;5030545;28;20050;-81
2022/08/06 02:23:54;;;;;;;6.10;1.80;;;;;;;;;;5030757;28;20027;-81
2022/08/06 02:26:25;;;;;;;9.18;2.40;;;;;;;;;;5028455;28;20038;-82
2022/08/06 02:28:59;;;;;;;3.50;1.92;;;;;;;;;;5028004;28;20046;-81
2022/08/06 02:31:28;;;;;;;6.65;2.20;;;;;;;;;;5030403;28;20038;-82
2022/08/06 02:34:18;;;;;;;7.40;2.08;;;;;;;;;;5027103;28;20106;-81
2022/08/06 02:37:03;;;;;;;6.88;2.08;;;;;;;;;;5029534;28;20067;-81
2022/08/06 02:39:34;;;;;;;10.95;2.33;;;;;;;;;;5028369;28;20051;-81
2022/08/06 02:42:27;;;;;;;5.55;1.70;;;;;;;;;;5030839;28;20026;-83
2022/08/06 02:45:04;;;;;;;9.90;2.10;;;;;;;;;;5026355;28;20043;-81
2022/08/06 02:47:36;;;;;;;5.30;2.10;;;;;;;;;;5027932;28;20094;-82
2022/08/06 02:50:27;;;;;;;7.10;2.20;;;;;;;;;;5032685;28;20041;-80
2022/08/06 02:53:00;;;;;;;11.20;2.30;;;;;;;;;;5028143;28;20065;-82
2022/08/06 02:55:36;;;;;;;6.03;2.30;;;;;;;;;;5028697;28;20069;-81
2022/08/06 02:58:21;;;;;;;3.97;2.10;;;;;;;;;;5030879;28;20109;-82
2022/08/06 03:01:07;;;;;;;6.05;2.17;;;;;;;;;;5026580;28;20042;-82
2022/08/06 03:03:35;;;;;;;6.40;2.10;;;;;;;;;;5028641;28;20029;-81
2022/08/06 03:06:21;;;;;;;6.28;1.90;;;;;;;;;;5028083;28;20046;-81
2022/08/06 03:08:54;;;;;;;6.28;1.80;;;;;;;;;;5027661;28;22047;-81
2022/08/06 03:11:23;;;;;;;5.65;2.00;;;;;;;;;;5030445;28;20070;-81
2022/08/06 03:13:53;;;;;;;6.38;1.90;;;;;;;;;;5027395;28;20095;-81
2022/08/06 03:16:22;;;;;;;4.90;1.85;;;;;;;;;;5028786;28;20039;-82
2022/08/06 03:18:55;;;;;;;6.68;1.92;;;;;;;;;;5027576;28;20038;-81
2022/08/06 03:21:43;;;;;;;3.88;1.77;;;;;;;;;;5029265;28;20043;-81
2022/08/06 03:24:17;;;;;;;6.93;1.80;;;;;;;;;;5026449;28;20043;-82
2022/08/06 03:26:47;;;;;;;6.40;1.88;;;;;;;;;;5029473;28;20078;-81
2022/08/06 03:29:14;;;;;;;6.03;1.83;;;;;;;;;;5031319;28;20049;-81
2022/08/06 03:31:42;;;;;;;6.22;2.67;;;;;;;;;;5027792;28;20027;-81
2022/08/06 03:34:24;;;;;;;5.53;1.88;;;;;;;;;;5026521;28;20026;-81
2022/08/06 03:36:53;;;;;;;8.13;2.08;;;;;;;;;;5025605;28;20022;-81
2022/08/06 03:39:21;;;;;;;5.35;2.08;;;;;;;;;;5025047;28;20026;-82
2022/08/06 03:41:49;;;;;;;5.18;2.08;;;;;;;;;;5027265;28;20046;-82
2022/08/06 03:44:35;;;;;;;5.95;2.15;;;;;;;;;;5024332;28;20103;-80
2022/08/06 03:47:12;;;;;;;5.18;1.92;;;;;;;;;;5026208;28;20050;-80
2022/08/06 03:49:56;;;;;;;8.52;2.00;;;;;;;;;;5025527;28;20126;-81
2022/08/06 03:52:25;;;;;;;6.88;1.90;;;;;;;;;;5023276;28;20098;-80
2022/08/06 03:54:56;;;;;;;6.47;1.90;;;;;;;;;;5023781;28;20075;-80
2022/08/06 03:57:26;;;;;;;10.73;2.10;;;;;;;;;;5023428;28;20173;-80
2022/08/06 04:00:00;;;;;;;5.77;1.87;;;;;;;;;;5016479;28;20062;-80
2022/08/06 04:02:33;;;;;;;6.25;1.98;;;;;;;;;;5015409;28;20254;-80
2022/08/06 04:05:12;;;;;;;5.43;2.00;;;;;;;;;;5013956;28;20055;-80
2022/08/06 04:07:40;;;;;;;6.47;1.98;;;;;;;;;;5017447;28;20047;-80
2022/08/06 04:10:23;;;;;;;3.50;1.70;;;;;;;;;;5016310;28;20061;-80
2022/08/06 04:13:01;;;;;;;7.18;1.90;;;;;;;;;;5015444;28;20046;-80
2022/08/06 04:15:49;;;;;;;6.55;2.00;;;;;;;;;;5013122;28;20811;-80
2022/08/06 04:18:20;;;;;;;6.57;1.80;;;;;;;;;;5011200;28;20713;-80
2022/08/06 04:20:49;;;;;;;7.47;1.88;;;;;;;;;;5009523;28;20066;-81
2022/08/06 04:23:19;;;;;;;6.90;2.00;;;;;;;;;;5008567;28;20054;-80
2022/08/06 04:26:06;;;;;;;5.72;1.90;;;;;;;;;;5006162;28;20054;-80
2022/08/06 04:28:42;;;;;;;3.55;1.83;;;;;;;;;;5009073;28;20054;-79
2022/08/06 04:31:19;;;;;;;2.83;1.52;;;;;;;;;;5008983;28;20591;-79
2022/08/06 04:34:07;;;;;;;9.88;1.83;;;;;;;;;;5005563;28;20055;-80
2022/08/06 04:36:38;;;;;;;6.45;1.70;;;;;;;;;;5003500;28;20055;-80
2022/08/06 04:39:12;;;;;;;5.40;1.92;;;;;;;;;;5006242;28;20062;-80
2022/08/06 04:41:41;;;;;;;6.90;1.67;;;;;;;;;;4997687;28;20705;-79
2022/08/06 04:44:10;;;;;;;6.13;2.00;;;;;;;;;;5008475;28;20051;-79
2022/08/06 04:46:40;;;;;;;4.65;1.52;;;;;;;;;;5007737;28;20079;-79
2022/08/06 04:49:08;;;;;;;4.03;1.52;;;;;;;;;;5012099;28;20536;-79
2022/08/06 04:51:40;;;;;;;5.18;2.10;;;;;;;;;;5007699;28;20081;-79
2022/08/06 04:54:28;;;;;;;3.08;1.70;;;;;;;;;;5005212;28;20736;-78
2022/08/06 04:56:56;;;;;;;3.95;1.95;;;;;;;;;;5003930;28;20046;-79
2022/08/06 04:59:24;;;;;;;3.85;1.58;;;;;;;;;;5001067;28;20042;-78
2022/08/06 05:02:12;;;;;;;3.17;1.73;;;;;;;;;;5002639;28;20062;-78
2022/08/06 05:04:40;;;;;;;4.43;1.70;;;;;;;;;;5001205;28;20146;-79
2022/08/06 05:07:14;;;;;;;2.33;1.50;;;;;;;;;;5000507;28;20114;-79
2022/08/06 05:09:43;;;;;;;5.50;1.70;;;;;;;;;;4999177;28;20142;-79
2022/08/06 05:12:30;;;;;;;8.30;1.75;;;;;;;;;;4998385;28;20081;-79
2022/08/06 05:15:04;;;;;;;5.35;2.20;;;;;;;;;;4999488;28;20051;-78
2022/08/06 05:17:37;;;;;;;8.05;2.42;;;;;;;;;;4996519;28;20736;-80
2022/08/06 05:20:10;;;;;;;8.93;2.47;;;;;;;;;;5001981;28;20062;-78
2022/08/06 05:23:04;;;;;;;4.10;1.83;;;;;;;;;;4998835;28;20050;-79
2022/08/06 05:25:46;;;;;;;4.40;2.00;;;;;;;;;;4999771;28;20150;-79
2022/08/06 05:28:23;;;;;;;5.05;1.75;;;;;;;;;;5001166;28;20055;-78
2022/08/06 05:30:54;;;;;;;3.95;1.85;;;;;;;;;;5005813;28;20054;-78
2022/08/06 05:33:36;;;;;;;3.65;2.05;;;;;;;;;;5003358;28;20117;-79
2022/08/06 05:36:11;;;;;;;5.97;1.85;;;;;;;;;;4999951;28;20050;-78
2022/08/06 05:38:45;;;;;;;8.75;2.17;;;;;;;;;;5004933;28;20050;-79
2022/08/06 05:41:28;;;;;;;5.60;2.50;;;;;;;;;;5001416;28;20145;-80
2022/08/06 05:44:04;;;;;;;4.30;1.85;;;;;;;;;;4999434;28;20121;-79
2022/08/06 05:46:35;;;;;;;5.50;2.20;;;;;;;;;;5003641;28;20065;-79
2022/08/06 05:49:10;;;;;;;7.55;2.42;;;;;;;;;;5004174;28;20061;-78
2022/08/06 05:52:11;;;;;;;4.30;1.80;;;;;;;;;;5001906;28;20057;-80
2022/08/06 05:54:39;;;;;;;5.00;2.10;;;;;;;;;;5004981;28;20745;-79
2022/08/06 05:57:18;;;;;;;3.55;1.60;;;;;;;;;;5003867;28;20057;-79
2022/08/06 06:00:11;;;;;;;3.90;1.88;;;;;;;;;;5003668;28;20051;-79
2022/08/06 06:02:58;;;;;;;2.70;1.45;;;;;;;;;;4998593;28;20050;-80
2022/08/06 06:05:29;;;;;;;4.78;1.85;;;;;;;;;;5005552;28;20046;-80
2022/08/06 06:08:18;;;;;;;7.47;1.98;;;;;;;;;;5007672;28;20058;-80
2022/08/06 06:11:07;;;;;;;4.18;1.67;;;;;;;;;;5011180;28;20054;-80
2022/08/06 06:13:38;;;;;;;6.03;1.80;;;;;;;;;;5023645;28;20054;-81
2022/08/06 06:16:41;;;;;;;6.10;1.60;;;;;;;;;;5029242;28;20058;-81
2022/08/06 06:19:27;;;;;;;5.32;1.58;;;;;;;;;;5025911;28;20043;-81
2022/08/06 06:22:16;;;;;;;1.35;1.10;;;;;;;;;;5029992;28;20035;-81
2022/08/06 06:24:47;;;;;;;7.03;1.52;;;;;;;;;;5028730;28;20046;-81
2022/08/06 06:27:19;;;;;;;6.53;1.42;;;;;;;;;;5026776;28;20035;-80
2022/08/06 06:30:06;;;;;;;4.38;1.30;;;;;;;;;;5024891;28;20163;-80
2022/08/06 06:32:38;;;;;;;3.90;1.30;;;;;;;;;;5020607;28;20078;-80
2022/08/06 06:35:07;;;;;;;3.53;1.20;;;;;;;;;;5020231;28;20864;-80
2022/08/06 06:37:39;;;;;;;7.82;1.40;;;;;;;;;;5020134;28;20101;-80
2022/08/06 06:40:07;;;;;;;5.97;1.40;;;;;;;;;;5019956;28;21035;-79
2022/08/06 06:42:54;;;;;;;4.53;1.30;;;;;;;;;;5025425;28;20134;-79
2022/08/06 06:45:27;;;;;;;3.17;1.05;;;;;;;;;;5022303;28;20046;-79
2022/08/06 06:48:23;;;;;;;5.78;1.25;;;;;;;;;;5020761;28;20050;-79
2022/08/06 06:50:58;;;;;;;3.92;1.00;;;;;;;;;;5021281;28;20042;-79
2022/08/06 06:53:29;;;;;;;5.60;1.00;;;;;;;;;;5020199;28;20062;-79
2022/08/06 06:56:17;;;;;;;3.85;0.70;;;;;;;;;;5015733;28;20043;-79
2022/08/06 06:58:50;;;;;;;2.63;0.80;;;;;;;;;;5019415;28;20050;-79
2022/08/06 07:01:18;;;;;;;3.97;1.02;;;;;;;;;;5022246;28;20098;-80
2022/08/06 07:03:56;;;;;;;3.50;0.90;;;;;;;;;;5019359;28;20170;-77
2022/08/06 07:06:24;;;;;;;5.10;1.10;;;;;;;;;;5013440;28;20035;-78
2022/08/06 07:09:11;;;;;;;2.60;0.90;;;;;;;;;;5017007;28;20063;-78
2022/08/06 07:11:59;;;;;;;5.07;1.17;;;;;;;;;;5016204;28;20069;-78
2022/08/06 07:14:31;;;;;;;3.70;1.23;;;;;;;;;;5012899;28;20038;-79
2022/08/06 07:17:01;;;;;;;3.78;0.95;;;;;;;;;;5011133;28;20057;-79
2022/08/06 07:19:48;;;;;;;3.47;1.10;;;;;;;;;;5012617;28;20139;-80
2022/08/06 07:22:18;;;;;;;2.83;1.15;;;;;;;;;;5008364;28;20086;-80
2022/08/06 07:24:51;;;;;;;3.28;0.82;;;;;;;;;;5009550;28;20059;-80
2022/08/06 07:27:25;;;;;;;2.50;0.90;;;;;;;;;;5012165;28;20057;-82
2022/08/06 07:30:10;;;;;;;3.03;1.08;;;;;;;;;;5003453;28;20058;-78
2022/08/06 07:32:38;;;;;;;3.00;0.70;;;;;;;;;;5004318;28;20043;-80
2022/08/06 07:35:12;;;;;;;6.03;1.75;;;;;;;;;;5007231;28;20058;-81
2022/08/06 07:37:47;;;;;;;2.25;1.05;;;;;;;;;;5003546;28;20050;-80
2022/08/06 07:40:26;;;;;;;3.38;0.95;;;;;;;;;;4998875;28;20058;-78
2022/08/06 07:43:17;;;;;;;3.45;0.73;;;;;;;;;;5009188;28;20157;-79
2022/08/06 07:45:52;;;;;;;2.75;0.90;;;;;;;;;;5004921;28;20046;-79
2022/08/06 07:48:27;;;;;;;2.00;1.00;;;;;;;;;;5007535;28;20062;-77
2022/08/06 07:50:54;;;;;;;4.57;0.90;;;;;;;;;;5002484;28;20094;-77
2022/08/06 07:53:22;;;;;;;3.50;1.10;;;;;;;;;;5001120;28;20054;-78
2022/08/06 07:56:10;;;;;;;1.75;0.75;;;;;;;;;;5000887;28;20068;-78
2022/08/06 07:58:41;;;;;;;3.15;0.93;;;;;;;;;;4999623;28;20050;-78
2022/08/06 08:01:13;;;;;;;4.00;1.02;;;;;;;;;;5005112;28;20064;-78
2022/08/06 08:06:53;;;;;;;2.85;0.85;;;;;;;;;;4999655;28;20089;-77
2022/08/06 08:09:22;;;;;;;6.28;1.08;;;;;;;;;;5001217;28;20057;-77
2022/08/06 08:12:13;;;;;;;9.88;1.05;;;;;;;;;;5003215;28;20050;-77
2022/08/06 08:15:02;;;;;;;2.42;0.95;;;;;;;;;;4999417;28;20050;-77
2022/08/06 08:17:29;;;;;;;4.57;0.88;;;;;;;;;;5002743;28;20860;-77
2022/08/06 08:20:11;;;;;;;2.40;0.90;;;;;;;;;;5003001;28;20081;-78
2022/08/06 08:22:43;;;;;;;4.00;0.93;;;;;;;;;;4999857;28;20054;-77
2022/08/06 08:25:16;;;;;;;4.72;0.98;;;;;;;;;;4996751;28;20437;-77
2022/08/06 08:28:07;;;;;;;3.60;0.90;;;;;;;;;;5000828;28;20099;-77
2022/08/06 08:30:42;;;;;;;2.30;0.90;;;;;;;;;;4999191;28;20102;-77
2022/08/06 08:33:10;;;;;;;1.63;0.90;;;;;;;;;;5001648;28;20059;-77
2022/08/06 08:35:44;;;;;;;4.15;0.90;;;;;;;;;;4997574;28;20066;-78
2022/08/06 08:38:27;;;;;;;3.47;1.00;;;;;;;;;;5000503;28;20067;-77
2022/08/06 08:40:57;;;;;;;2.97;0.95;;;;;;;;;;4997424;28;20057;-78
2022/08/06 08:43:26;;;;;;;2.25;0.90;;;;;;;;;;5000588;28;20050;-77
2022/08/06 08:46:13;;;;;;;1.85;0.80;;;;;;;;;;5001435;28;20055;-76
2022/08/06 08:48:42;;;;;;;1.73;0.70;;;;;;;;;;5004202;28;20082;-76
2022/08/06 08:51:13;;;;;;;2.83;0.80;;;;;;;;;;5004501;28;20069;-76
2022/08/06 08:53:45;;;;;;;3.17;0.90;;;;;;;;;;5000023;28;20168;-77
2022/08/06 08:56:13;;;;;;;5.20;0.70;;;;;;;;;;5003400;28;20051;-77
2022/08/06 08:59:01;;;;;;;3.35;0.73;;;;;;;;;;5002029;28;20094;-76
2022/08/06 09:01:49;;;;;;;2.30;0.65;;;;;;;;;;5001036;28;20057;-77
2022/08/06 09:04:23;;;;;;;1.55;0.60;;;;;;;;;;5000120;28;20504;-76
2022/08/06 09:06:55;;;;;;;1.15;0.73;;;;;;;;;;4998914;28;20993;-77
2022/08/06 09:09:24;;;;;;;1.45;0.50;;;;;;;;;;5003449;28;20043;-77
2022/08/06 09:11:59;;;;;;;3.72;0.75;;;;;;;;;;5007540;28;20046;-77
2022/08/06 09:14:46;;;;;;;2.92;1.13;;;;;;;;;;5013209;28;20062;-78
2022/08/06 09:17:13;;;;;;;4.88;0.75;;;;;;;;;;5013183;28;20891;-78
2022/08/06 09:20:00;;;;;;;3.55;0.85;;;;;;;;;;5009819;28;20035;-78
2022/08/06 09:22:28;;;;;;;1.45;0.70;;;;;;;;;;5015621;28;20038;-77
2022/08/06 09:24:55;;;;;;;1.58;0.80;;;;;;;;;;5010647;28;20951;-76
2022/08/06 09:27:32;;;;;;;1.77;0.82;;;;;;;;;;5002766;28;20071;-77
2022/08/06 09:30:16;;;;;;;1.73;0.90;;;;;;;;;;5012564;28;20086;-77
2022/08/06 09:32:56;;;;;;;1.10;0.57;;;;;;;;;;5010423;28;20055;-77
2022/08/06 09:35:30;;;;;;;2.83;0.73;;;;;;;;;;5011858;28;20061;-79
2022/08/06 09:38:11;;;;;;;0.80;0.60;;;;;;;;;;5011260;28;20074;-77
2022/08/06 09:41:22;;;;;;;1.48;0.52;;;;;;;;;;5002886;28;20109;-78
2022/08/06 09:43:51;;;;;;;1.45;0.60;;;;;;;;;;5009176;28;20058;-76
2022/08/06 09:46:39;;;;;;;1.60;0.77;;;;;;;;;;5005019;28;20736;-77
2022/08/06 09:49:07;;;;;;;1.25;0.60;;;;;;;;;;5010384;28;20058;-78
2022/08/06 09:52:13;;;;;;;3.08;0.60;;;;;;;;;;5019370;28;20158;-78
2022/08/06 09:54:40;;;;;;;2.13;0.80;;;;;;;;;;5012742;28;20054;-76
2022/08/06 09:57:08;;;;;;;1.30;0.60;;;;;;;;;;5002971;28;20256;-78
2022/08/06 09:59:46;;;;;;;1.90;0.80;;;;;;;;;;5013772;28;20114;-78
2022/08/06 10:02:20;;;;;;;1.38;0.70;;;;;;;;;;5008429;28;20073;-78
2022/08/06 10:05:11;;;;;;;2.50;0.80;;;;;;;;;;4999583;28;20053;-77
2022/08/06 10:07:46;;;;;;;3.65;0.75;;;;;;;;;;5018380;28;20054;-78
2022/08/06 10:10:19;;;;;;;1.50;0.70;;;;;;;;;;5018938;28;20895;-78
2022/08/06 10:13:15;;;;;;;3.30;0.95;;;;;;;;;;5016605;28;20097;-78
2022/08/06 10:15:45;;;;;;;1.17;0.70;;;;;;;;;;5022610;28;20047;-77
2022/08/06 10:18:34;;;;;;;1.73;0.70;;;;;;;;;;5015880;28;20760;-78
2022/08/06 10:21:22;;;;;;;0.85;0.57;;;;;;;;;;5012044;28;20051;-77
2022/08/06 10:23:55;;;;;;;2.58;0.60;;;;;;;;;;5010590;28;20046;-77
2022/08/06 10:26:25;;;;;;;2.00;0.70;;;;;;;;;;5019353;28;20042;-77
2022/08/06 10:29:01;;;;;;;1.95;0.60;;;;;;;;;;5019437;28;20059;-79
2022/08/06 10:31:29;;;;;;;1.52;0.60;;;;;;;;;;5023698;28;20106;-78
2022/08/06 10:34:01;;;;;;;0.68;0.50;;;;;;;;;;5023764;28;20035;-79
2022/08/06 10:36:39;;;;;;;1.50;0.60;;;;;;;;;;5015986;28;20066;-78
2022/08/06 10:39:08;;;;;;;1.42;0.47;;;;;;;;;;5014387;28;20047;-77
2022/08/06 10:41:55;;;;;;;0.93;0.63;;;;;;;;;;5006722;28;20051;-79
2022/08/06 10:44:31;;;;;;;1.02;0.60;;;;;;;;;;5007452;28;20059;-79
2022/08/06 10:47:08;;;;;;;0.73;0.63;;;;;;;;;;5019597;28;20051;-78
2022/08/06 10:49:37;;;;;;;0.50;0.40;;;;;;;;;;5027094;28;20057;-78
2022/08/06 10:52:24;;;;;;;0.85;0.52;;;;;;;;;;5023090;28;20091;-78
2022/08/06 10:54:51;;;;;;;1.13;0.70;;;;;;;;;;5018598;28;20058;-78
2022/08/06 10:57:19;;;;;;;0.35;0.35;;;;;;;;;;5019889;28;20106;-78
2022/08/06 11:00:06;;;;;;;0.40;0.40;;;;;;;;;;5023883;28;20058;-78
2022/08/06 11:02:36;;;;;;;1.85;0.50;;;;;;;;;;5019448;28;20054;-76
2022/08/06 11:05:15;;;;;;;0.82;0.50;;;;;;;;;;5020540;28;20849;-78
2022/08/06 11:08:10;;;;;;;1.45;0.60;;;;;;;;;;5009692;28;20047;-79
2022/08/06 11:10:59;;;;;;;1.63;0.55;;;;;;;;;;5025995;28;20065;-78
2022/08/06 11:13:33;;;;;;;1.60;0.55;;;;;;;;;;5026335;28;20066;-79
2022/08/06 11:16:23;;;;;;;0.93;0.50;;;;;;;;;;5025186;28;20062;-79
2022/08/06 11:18:59;;;;;;;2.85;0.45;;;;;;;;;;5027178;28;20034;-79
2022/08/06 11:21:40;;;;;;;1.60;0.52;;;;;;;;;;5022242;28;20062;-77
2022/08/06 11:24:28;;;;;;;3.40;0.90;;;;;;;;;;5019189;28;20088;-78
2022/08/06 11:26:55;;;;;;;2.22;0.70;;;;;;;;;;5023581;28;20049;-77
2022/08/06 11:29:57;;;;;;;2.65;0.60;;;;;;;;;;5030424;28;20057;-78
2022/08/06 11:32:43;;;;;;;1.15;0.60;;;;;;;;;;5017598;28;20051;-76
2022/08/06 11:35:29;;;;;;;2.72;0.75;;;;;;;;;;5015626;28;20101;-76
2022/08/06 11:37:57;;;;;;;2.40;0.80;;;;;;;;;;5016708;28;20179;-77
2022/08/06 11:40:54;;;;;;;1.00;0.52;;;;;;;;;;5010708;28;20042;-78
2022/08/06 11:43:46;;;;;;;1.45;0.70;;;;;;;;;;5013848;28;20057;-76
2022/08/06 11:46:31;;;;;;;1.27;0.55;;;;;;;;;;5015033;28;20080;-79
2022/08/06 11:49:11;;;;;;;3.90;0.90;;;;;;;;;;5002523;28;20105;-79
2022/08/06 11:51:44;;;;;;;1.35;0.98;;;;;;;;;;5009188;28;20428;-77
2022/08/06 11:54:14;;;;;;;2.22;0.90;;;;;;;;;;5011781;28;20046;-76
2022/08/06 11:57:04;;;;;;;4.18;0.77;;;;;;;;;;5024126;28;20049;-75
2022/08/06 11:59:33;;;;;;;1.52;0.60;;;;;;;;;;5020477;28;20074;-77
2022/08/06 12:02:08;;;;;;;0.60;0.60;;;;;;;;;;5008606;28;20153;-76
2022/08/06 12:04:38;;;;;;;2.08;0.80;;;;;;;;;;5005976;28;20058;-77
2022/08/06 12:07:26;;;;;;;1.70;0.80;;;;;;;;;;5005354;28;20428;-76
2022/08/06 12:10:10;;;;;;;2.42;0.70;;;;;;;;;;5008590;28;20054;-77
2022/08/06 12:12:48;;;;;;;1.45;0.55;;;;;;;;;;5008009;28;20139;-77
2022/08/06 12:15:19;;;;;;;1.38;0.75;;;;;;;;;;5009031;28;20053;-78
2022/08/06 12:18:08;;;;;;;1.05;0.80;;;;;;;;;;5011692;28;20078;-81
2022/08/06 12:20:53;;;;;;;3.85;0.80;;;;;;;;;;5004004;28;20054;-79
2022/08/06 12:23:23;;;;;;;2.30;0.77;;;;;;;;;;5003567;28;20050;-77
2022/08/06 12:26:10;;;;;;;2.60;0.70;;;;;;;;;;5003028;28;20053;-78
2022/08/06 12:28:38;;;;;;;2.38;0.90;;;;;;;;;;5001026;28;20146;-81
2022/08/06 12:31:08;;;;;;;1.45;0.82;;;;;;;;;;4998630;28;20082;-79
2022/08/06 12:33:56;;;;;;;1.75;1.02;;;;;;;;;;4999531;28;20536;-82
2022/08/06 12:36:26;;;;;;;1.92;0.80;;;;;;;;;;4999230;28;20193;-80
2022/08/06 12:39:01;;;;;;;4.13;0.82;;;;;;;;;;4997807;28;20109;-81
2022/08/06 12:41:34;;;;;;;3.38;1.00;;;;;;;;;;5014258;28;20059;-82
2022/08/06 12:44:13;;;;;;;4.93;1.00;;;;;;;;;;5005390;28;20061;-79
2022/08/06 12:46:54;;;;;;;2.60;0.98;;;;;;;;;;5000598;28;20055;-80
2022/08/06 12:49:32;;;;;;;2.42;0.80;;;;;;;;;;5009669;28;20101;-80
2022/08/06 12:52:13;;;;;;;1.30;0.70;;;;;;;;;;5004899;28;20055;-80
2022/08/06 12:54:41;;;;;;;2.33;0.70;;;;;;;;;;5001111;28;20116;-79
2022/08/06 12:57:09;;;;;;;4.95;0.70;;;;;;;;;;5006280;28;20093;-78
2022/08/06 12:59:48;;;;;;;1.50;0.70;;;;;;;;;;5003871;28;20571;-79
2022/08/06 13:02:16;;;;;;;0.57;0.52;;;;;;;;;;5005952;28;20109;-79
2022/08/06 13:04:54;;;;;;;1.13;0.70;;;;;;;;;;5001854;28;20054;-81
2022/08/06 13:07:21;;;;;;;5.05;0.80;;;;;;;;;;4999665;28;20050;-80
2022/08/06 13:10:10;;;;;;;1.08;0.70;;;;;;;;;;5003880;28;20798;-80
2022/08/06 13:12:58;;;;;;;1.90;0.68;;;;;;;;;;5002788;28;20055;-80
2022/08/06 13:16:05;;;;;;;2.78;0.88;;;;;;;;;;5002021;28;20062;-80
2022/08/06 13:18:35;;;;;;;1.50;0.68;;;;;;;;;;5006114;28;20074;-79
2022/08/06 13:21:19;;;;;;;2.95;0.68;;;;;;;;;;5003301;28;20058;-80
2022/08/06 13:23:48;;;;;;;0.70;0.70;;;;;;;;;;4998148;28;20078;-80
2022/08/06 13:26:16;;;;;;;3.50;0.93;;;;;;;;;;4996982;28;20105;-79
2022/08/06 13:29:08;;;;;;;3.60;0.88;;;;;;;;;;5005474;28;20955;-78
2022/08/06 13:32:00;;;;;;;1.27;0.70;;;;;;;;;;5001941;28;20057;-80
2022/08/06 13:34:29;;;;;;;0.85;0.70;;;;;;;;;;5002828;28;20078;-80
2022/08/06 13:36:58;;;;;;;1.92;0.80;;;;;;;;;;5005428;28;20082;-78
2022/08/06 13:39:30;;;;;;;3.28;1.00;;;;;;;;;;5002025;28;20058;-79
2022/08/06 13:42:08;;;;;;;2.40;0.70;;;;;;;;;;5008296;28;20437;-81
2022/08/06 13:44:44;;;;;;;2.53;0.88;;;;;;;;;;5004570;28;20481;-79
2022/08/06 13:47:16;;;;;;;2.10;1.00;;;;;;;;;;5002496;28;20050;-79
2022/08/06 13:50:03;;;;;;;0.73;0.68;;;;;;;;;;4998085;28;20058;-80
2022/08/06 13:52:34;;;;;;;2.20;0.60;;;;;;;;;;5000490;28;20057;-79
2022/08/06 13:55:02;;;;;;;1.73;0.80;;;;;;;;;;4998877;28;20035;-79
2022/08/06 13:57:36;;;;;;;1.48;0.85;;;;;;;;;;5011159;28;20098;-78
2022/08/06 14:00:12;;;;;;;1.83;0.80;;;;;;;;;;5009400;28;20056;-80
2022/08/06 14:02:46;;;;;;;2.53;0.80;;;;;;;;;;5004532;28;20050;-79
2022/08/06 14:05:13;;;;;;;0.63;0.63;;;;;;;;;;4998041;28;20153;-79
2022/08/06 14:07:50;;;;;;;1.25;0.68;;;;;;;;;;5008130;28;20155;-79
2022/08/06 14:10:20;;;;;;;1.08;0.60;;;;;;;;;;5000485;28;20054;-78
2022/08/06 14:15:46;;;;;;;1.05;0.80;;;;;;;;;;5003859;28;20101;-79
2022/08/06 14:18:14;;;;;;;1.42;0.80;;;;;;;;;;5004404;28;20054;-80
2022/08/06 14:20:41;;;;;;;0.70;0.70;;;;;;;;;;5004007;28;20532;-79
2022/08/06 14:23:09;;;;;;;1.00;0.70;;;;;;;;;;5008683;28;20088;-79
2022/08/06 14:25:36;;;;;;;2.13;0.82;;;;;;;;;;5011989;28;20051;-80
2022/08/06 14:28:26;;;;;;;3.75;0.80;;;;;;;;;;5001822;28;20054;-81
2022/08/06 14:30:53;;;;;;;4.85;0.82;;;;;;;;;;5005773;28;20062;-80
2022/08/06 14:33:22;;;;;;;0.77;0.70;;;;;;;;;;5004257;28;20054;-80
2022/08/06 14:36:06;;;;;;;1.00;0.80;;;;;;;;;;5000445;28;20066;-81
2022/08/06 14:38:34;;;;;;;0.63;0.63;;;;;;;;;;4999887;28;20085;-81
2022/08/06 14:46:59;;;;;;;0.57;0.57;;;;;;;;;;5006159;28;20054;-81
2022/08/06 14:49:27;;;;;;;1.30;0.90;;;;;;;;;;4998873;28;20050;-81
2022/08/06 14:52:12;;;;;;;1.25;0.90;;;;;;;;;;5008577;28;20054;-79
2022/08/06 14:54:49;;;;;;;1.27;1.00;;;;;;;;;;5006462;28;20164;-80
2022/08/06 14:57:35;;;;;;;1.50;0.95;;;;;;;;;;5004581;28;20453;-79
2022/08/06 15:00:22;;;;;;;1.45;1.00;;;;;;;;;;5003003;28;20057;-80
2022/08/06 15:03:03;;;;;;;1.55;1.20;;;;;;;;;;5004721;28;20812;-80
2022/08/06 15:05:34;;;;;;;1.35;0.98;;;;;;;;;;5006208;28;20050;-80
2022/08/06 15:08:22;;;;;;;1.63;1.10;;;;;;;;;;5007312;28;20162;-79
2022/08/06 15:10:52;;;;;;;1.00;0.90;;;;;;;;;;5001211;28;20055;-80
2022/08/06 15:13:20;;;;;;;2.55;1.00;;;;;;;;;;5001733;28;20057;-79
2022/08/06 15:16:02;;;;;;;2.03;1.00;;;;;;;;;;5002379;28;20054;-79
2022/08/06 15:18:37;;;;;;;7.68;1.50;;;;;;;;;;5002337;28;20059;-80
2022/08/06 15:21:24;;;;;;;2.55;0.95;;;;;;;;;;5003340;28;20835;-81
2022/08/06 15:24:10;;;;;;;2.15;1.10;;;;;;;;;;5005573;28;20055;-81
2022/08/06 15:26:37;;;;;;;4.85;1.17;;;;;;;;;;5005731;28;20984;-80
2022/08/06 15:29:14;;;;;;;2.28;1.13;;;;;;;;;;5002968;28;20047;-80
2022/08/06 15:31:45;;;;;;;3.38;1.20;;;;;;;;;;4997707;28;20058;-79
2022/08/06 15:34:16;;;;;;;3.67;1.10;;;;;;;;;;5002208;28;20114;-78
2022/08/06 15:36:46;;;;;;;1.50;1.00;;;;;;;;;;4998655;28;20122;-80
2022/08/06 15:39:30;;;;;;;1.48;1.10;;;;;;;;;;5002957;28;20079;-80
2022/08/06 15:42:17;;;;;;;2.58;1.75;;;;;;;;;;5000649;28;20520;-79
2022/08/06 15:44:45;;;;;;;6.78;1.30;;;;;;;;;;4999672;28;20058;-79
2022/08/06 15:47:13;;;;;;;2.85;1.20;;;;;;;;;;5004130;28;20054;-80
2022/08/06 15:49:41;;;;;;;1.90;1.13;;;;;;;;;;5001088;28;20137;-80
2022/08/06 15:52:32;;;;;;;3.67;1.27;;;;;;;;;;5001147;28;20054;-80
2022/08/06 15:55:04;;;;;;;1.10;1.00;;;;;;;;;;5003856;28;20058;-80